Time;durP1;ratioP1;P1;durP2;ratioP2;P2;SDS_P1;SDS_P2;PMS_P1;PMS_P2;Temp;Humidity;BMP_temperature;BMP_pressure;BME280_temperature;BME280_humidity;BME280_pressure;Samples;Min_cycle;Max_cycle;Signal;HPM_P1;HPM_P2
2021/11/12 00:14:47;;;;;;;51.10;33.35;;;10.00;83.40;;;;;;5073269;28;20043;-73
2021/11/12 00:17:14;;;;;;;43.53;30.27;;;10.00;83.40;;;;;;5067754;27;20044;-73
2021/11/12 00:19:40;;;;;;;57.65;37.40;;;9.90;83.20;;;;;;5068336;28;20132;-75
2021/11/12 00:22:06;;;;;;;55.55;35.58;;;9.90;83.40;;;;;;5064222;28;20028;-75
2021/11/12 00:24:32;;;;;;;60.50;38.13;;;9.80;83.30;;;;;;5062392;28;20037;-73
2021/11/12 00:26:58;;;;;;;54.85;37.25;;;9.80;83.40;;;;;;5056746;28;20031;-74
2021/11/12 00:29:24;;;;;;;49.97;35.42;;;9.80;83.50;;;;;;5064246;28;20482;-74
2021/11/12 00:34:56;;;;;;;42.20;33.42;;;9.80;83.60;;;;;;5064141;28;20045;-74
2021/11/12 00:40:01;;;;;;;52.15;37.17;;;9.70;83.70;;;;;;5060602;28;20037;-74
2021/11/12 00:45:04;;;;;;;46.03;35.13;;;9.60;84.00;;;;;;5056141;28;20025;-75
2021/11/12 00:55:18;;;;;;;43.72;34.13;;;9.50;84.30;;;;;;5084415;28;20024;-77
2021/11/12 00:57:44;;;;;;;49.20;35.45;;;9.50;84.20;;;;;;5077081;28;20066;-74
2021/11/12 01:00:12;;;;;;;45.00;35.13;;;9.50;84.20;;;;;;5082178;28;20036;-75
2021/11/12 01:02:38;;;;;;;48.50;35.88;;;9.50;84.30;;;;;;5079500;28;20039;-74
2021/11/12 01:05:07;;;;;;;48.95;36.80;;;9.50;84.30;;;;;;5084546;27;20123;-74
2021/11/12 01:07:33;;;;;;;42.55;34.65;;;9.40;84.20;;;;;;5078674;28;20037;-74
2021/11/12 01:09:59;;;;;;;45.25;35.67;;;9.50;84.30;;;;;;5078403;28;20028;-74
2021/11/12 01:12:26;;;;;;;43.97;33.83;;;9.40;84.20;;;;;;5079134;28;20425;-74
2021/11/12 01:14:51;;;;;;;44.55;35.35;;;9.40;84.30;;;;;;5081155;28;20092;-74
2021/11/12 01:17:17;;;;;;;47.28;34.70;;;9.40;84.40;;;;;;5079772;27;20036;-74
2021/11/12 01:19:43;;;;;;;46.92;35.33;;;9.40;84.50;;;;;;5084291;28;20463;-73
2021/11/12 01:22:10;;;;;;;50.38;35.00;;;9.40;84.60;;;;;;5075713;27;20056;-73
2021/11/12 01:24:36;;;;;;;44.55;34.28;;;9.40;84.60;;;;;;5080353;28;20056;-74
2021/11/12 01:27:02;;;;;;;46.47;35.47;;;9.40;84.60;;;;;;5088065;28;20033;-74
2021/11/12 01:29:28;;;;;;;43.25;33.17;;;9.30;84.60;;;;;;5072994;27;20387;-75
2021/11/12 01:31:54;;;;;;;39.78;30.98;;;9.30;84.70;;;;;;5073556;28;20452;-73
2021/11/12 01:34:20;;;;;;;45.13;35.00;;;9.20;84.70;;;;;;5065316;28;20035;-78
2021/11/12 01:36:47;;;;;;;44.20;33.65;;;9.20;84.70;;;;;;5058648;28;20044;-74
2021/11/12 01:39:19;;;;;;;42.45;32.05;;;9.10;84.90;;;;;;5060375;28;20037;-76
2021/11/12 01:41:51;;;;;;;42.25;31.08;;;9.00;85.00;;;;;;5080369;27;20157;-78
2021/11/12 01:44:28;;;;;;;43.88;31.98;;;8.90;85.20;;;;;;5083848;27;20386;-74
2021/11/12 01:47:11;;;;;;;43.65;33.08;;;8.90;85.10;;;;;;5077393;27;20040;-77
2021/11/12 01:49:49;;;;;;;42.15;32.60;;;8.80;85.10;;;;;;5079365;28;20028;-74
2021/11/12 01:52:36;;;;;;;44.58;31.83;;;8.60;85.20;;;;;;5081505;28;20471;-73
2021/11/12 01:55:09;;;;;;;45.45;33.78;;;8.50;85.40;;;;;;5082215;28;20035;-74
2021/11/12 02:00:22;;;;;;;39.23;31.80;;;8.40;85.80;;;;;;5080402;28;20480;-73
2021/11/12 02:02:48;;;;;;;48.53;33.20;;;8.30;85.90;;;;;;5076394;28;20031;-74
2021/11/12 02:05:16;;;;;;;44.58;32.75;;;8.20;86.00;;;;;;5076462;28;20036;-74
2021/11/12 02:07:42;;;;;;;46.58;34.22;;;8.20;86.10;;;;;;5083601;28;20039;-74
2021/11/12 02:10:18;;;;;;;44.72;33.75;;;8.10;86.20;;;;;;5077478;28;20520;-74
2021/11/12 02:15:49;;;;;;;49.80;35.53;;;8.00;86.30;;;;;;5038731;28;20079;-74
2021/11/12 02:18:16;;;;;;;45.55;32.90;;;7.90;86.30;;;;;;5033859;28;20060;-74
2021/11/12 02:21:11;;;;;;;42.42;32.40;;;7.90;86.40;;;;;;5047514;28;20133;-75
2021/11/12 02:23:44;;;;;;;46.75;32.90;;;7.80;86.50;;;;;;5080605;27;20126;-76
2021/11/12 02:26:18;;;;;;;48.78;34.33;;;7.80;86.50;;;;;;5080052;27;20040;-73
2021/11/12 02:28:45;;;;;;;43.45;33.65;;;7.80;86.30;;;;;;5081576;28;20040;-75
2021/11/12 02:31:11;;;;;;;46.20;33.38;;;7.60;86.30;;;;;;5070924;28;20044;-74
2021/11/12 02:33:38;;;;;;;46.80;36.58;;;7.60;86.40;;;;;;5077178;28;20033;-74
2021/11/12 02:36:08;;;;;;;46.42;35.45;;;7.50;86.50;;;;;;5082773;27;20024;-75
2021/11/12 02:38:36;;;;;;;45.03;34.63;;;7.50;86.70;;;;;;5055597;28;20473;-74
2021/11/12 02:41:04;;;;;;;49.08;36.85;;;7.40;86.80;;;;;;5055328;28;20036;-75
2021/11/12 02:43:32;;;;;;;50.33;35.88;;;7.40;87.00;;;;;;5057433;28;20055;-74
2021/11/12 02:46:02;;;;;;;47.22;34.72;;;7.40;87.20;;;;;;5061602;28;20021;-74
2021/11/12 02:48:33;;;;;;;47.05;34.42;;;7.30;87.20;;;;;;5084768;28;20024;-74
2021/11/12 02:50:59;;;;;;;53.88;38.75;;;7.30;87.30;;;;;;5076954;28;20043;-74
2021/11/12 02:53:24;;;;;;;53.22;35.85;;;7.30;87.40;;;;;;5079980;27;20019;-73
2021/11/12 02:55:50;;;;;;;51.67;37.92;;;7.20;87.50;;;;;;5069769;28;20036;-76
2021/11/12 02:58:16;;;;;;;56.13;36.33;;;7.20;87.50;;;;;;5067697;28;20048;-76
2021/11/12 03:00:43;;;;;;;50.33;36.42;;;7.20;87.40;;;;;;5058092;28;20025;-74
2021/11/12 03:03:09;;;;;;;54.97;37.78;;;7.10;87.40;;;;;;5059261;28;20384;-73
2021/11/12 03:05:36;;;;;;;59.33;39.22;;;7.10;87.50;;;;;;5081683;27;20065;-75
2021/11/12 03:08:02;;;;;;;50.47;36.72;;;7.10;87.70;;;;;;5081576;28;20047;-75
2021/11/12 03:10:28;;;;;;;50.80;37.13;;;7.10;87.60;;;;;;5080316;27;20040;-73
2021/11/12 03:12:55;;;;;;;53.85;37.40;;;7.10;87.60;;;;;;5076818;28;20063;-72
2021/11/12 03:15:21;;;;;;;53.15;35.83;;;7.00;87.60;;;;;;5083638;27;20047;-73
2021/11/12 03:17:51;;;;;;;52.25;36.92;;;7.00;87.70;;;;;;5078787;28;20035;-73
2021/11/12 03:20:18;;;;;;;59.55;38.50;;;7.00;88.00;;;;;;5080438;28;20036;-73
2021/11/12 03:23:06;;;;;;;53.50;38.45;;;6.90;88.00;;;;;;5079092;28;20029;-72
2021/11/12 04:00:46;;;;;;;57.33;36.60;;;6.30;88.20;;;;;;5084223;27;20413;-74
2021/11/12 05:02:44;;;;;;;55.25;36.95;;;5.70;88.70;;;;;;5054836;28;20032;-76
2021/11/12 05:09:48;;;;;;;62.13;38.23;;;5.70;89.40;;;;;;5083554;28;20050;-74
2021/11/12 05:43:36;;;;;;;45.78;32.05;;;5.40;88.90;;;;;;5081376;28;19957;-75
2021/11/12 05:46:02;;;;;;;51.95;33.22;;;5.30;88.80;;;;;;5084270;28;20039;-74
2021/11/12 05:51:11;;;;;;;55.03;34.00;;;5.10;89.00;;;;;;5082995;27;20043;-73
2021/11/12 05:56:21;;;;;;;59.03;35.20;;;5.10;88.80;;;;;;5079914;27;20367;-73
2021/11/12 05:58:47;;;;;;;56.65;36.15;;;5.00;88.70;;;;;;5083026;28;20445;-74
2021/11/12 06:01:13;;;;;;;53.08;33.20;;;4.90;88.60;;;;;;5077993;27;20029;-73
2021/11/12 06:03:39;;;;;;;55.33;33.88;;;4.90;88.60;;;;;;5078615;28;20041;-74
2021/11/12 06:06:05;;;;;;;60.63;36.63;;;4.90;88.50;;;;;;5071248;28;20038;-74
2021/11/12 06:08:31;;;;;;;56.70;33.95;;;4.80;88.40;;;;;;5065472;28;20025;-75
2021/11/12 06:10:57;;;;;;;58.25;34.28;;;4.70;88.40;;;;;;5076155;28;20047;-74
2021/11/12 06:13:22;;;;;;;59.40;33.47;;;4.80;88.50;;;;;;5077727;28;20032;-74
2021/11/12 06:15:48;;;;;;;54.47;33.80;;;4.70;88.30;;;;;;5081562;27;20396;-74
2021/11/12 06:18:14;;;;;;;62.38;35.22;;;4.60;88.50;;;;;;5080256;27;20100;-73
2021/11/12 06:20:39;;;;;;;60.25;35.78;;;4.60;88.40;;;;;;5081528;28;20035;-74
2021/11/12 06:23:05;;;;;;;61.63;36.53;;;4.60;88.50;;;;;;5070848;28;20070;-74
2021/11/12 06:25:31;;;;;;;56.80;34.70;;;4.60;88.40;;;;;;5080343;28;20024;-74
2021/11/12 06:27:57;;;;;;;53.03;35.28;;;4.60;88.30;;;;;;5075482;28;20436;-74
2021/11/12 06:30:23;;;;;;;54.78;34.20;;;4.60;88.20;;;;;;5059320;28;20422;-75
2021/11/12 06:32:49;;;;;;;55.78;33.78;;;4.60;88.30;;;;;;5058012;28;20472;-73
2021/11/12 06:35:14;;;;;;;49.97;32.75;;;4.60;88.40;;;;;;5058191;28;20059;-75
2021/11/12 06:37:40;;;;;;;55.05;34.08;;;4.60;88.30;;;;;;5059477;28;20050;-73
2021/11/12 06:40:07;;;;;;;49.03;32.97;;;4.60;88.40;;;;;;5073889;27;20123;-74
2021/11/12 06:42:38;;;;;;;49.55;32.22;;;4.60;88.30;;;;;;5067078;28;20040;-75
2021/11/12 06:50:23;;;;;;;50.50;34.20;;;4.50;88.10;;;;;;5068507;28;20052;-74
2021/11/12 06:52:49;;;;;;;47.80;31.80;;;4.50;88.10;;;;;;5070017;27;20162;-74
2021/11/12 06:55:16;;;;;;;49.75;32.63;;;4.50;87.80;;;;;;5077536;27;20077;-74
2021/11/12 06:57:44;;;;;;;52.90;33.60;;;4.50;87.80;;;;;;5060841;28;20047;-74
2021/11/12 07:00:14;;;;;;;49.15;33.35;;;4.50;87.80;;;;;;5075784;28;20031;-74
2021/11/12 07:02:40;;;;;;;53.42;35.35;;;4.50;87.80;;;;;;5077831;28;20024;-74
2021/11/12 07:05:07;;;;;;;51.83;34.25;;;4.40;87.80;;;;;;5085549;28;20117;-74
2021/11/12 07:07:33;;;;;;;46.65;32.53;;;4.50;87.80;;;;;;5078409;28;20117;-73
2021/11/12 07:09:59;;;;;;;49.90;33.83;;;4.40;87.80;;;;;;5071595;27;20055;-73
2021/11/12 07:12:25;;;;;;;45.03;33.03;;;4.50;87.80;;;;;;5079878;27;20036;-74
2021/11/12 07:14:51;;;;;;;48.90;32.28;;;4.50;87.60;;;;;;5072865;28;20020;-74
2021/11/12 07:17:16;;;;;;;48.28;32.97;;;4.60;87.70;;;;;;5071223;27;20045;-74
2021/11/12 07:19:42;;;;;;;50.03;32.15;;;4.60;87.50;;;;;;5083544;28;20025;-75
2021/11/12 07:22:08;;;;;;;48.17;33.00;;;4.60;87.60;;;;;;5078902;27;20085;-75
2021/11/12 07:24:34;;;;;;;47.05;32.30;;;4.60;87.40;;;;;;5074851;28;20029;-73
2021/11/12 07:27:00;;;;;;;48.55;31.00;;;4.60;87.40;;;;;;5075377;28;20475;-74
2021/11/12 07:29:28;;;;;;;44.65;31.88;;;4.60;87.30;;;;;;5086095;28;20056;-74
2021/11/12 07:31:55;;;;;;;49.03;31.90;;;4.60;87.10;;;;;;5090885;28;20064;-74
2021/11/12 07:34:24;;;;;;;44.95;30.88;;;4.60;87.30;;;;;;5061549;28;20448;-73
2021/11/12 07:36:52;;;;;;;42.53;30.92;;;4.60;87.10;;;;;;5067725;28;20654;-73
2021/11/12 07:49:51;;;;;;;52.70;31.95;;;4.70;86.70;;;;;;5047203;28;20037;-73
2021/11/12 07:52:19;;;;;;;51.92;31.50;;;4.80;86.60;;;;;;5029717;28;20164;-74
2021/11/12 07:54:47;;;;;;;45.80;30.13;;;4.80;86.60;;;;;;5056699;28;20031;-77
2021/11/12 07:57:13;;;;;;;47.50;31.52;;;4.80;86.30;;;;;;5063155;28;20029;-74
2021/11/12 07:59:39;;;;;;;50.47;30.83;;;4.80;86.30;;;;;;5064433;28;20029;-74
2021/11/12 08:02:06;;;;;;;44.80;30.92;;;4.90;86.30;;;;;;5062671;28;20434;-75
2021/11/12 08:04:33;;;;;;;47.85;31.38;;;4.90;86.20;;;;;;5070991;28;20184;-74
2021/11/12 08:07:00;;;;;;;47.00;30.90;;;5.00;86.20;;;;;;5076382;28;20372;-74
2021/11/12 08:10:11;;;;;;;46.88;29.40;;;5.00;86.10;;;;;;5063836;28;20055;-74
2021/11/12 08:12:19;;;;;;;47.28;29.63;;;5.10;86.00;;;;;;5060433;28;20028;-74
2021/11/12 08:17:29;;;;;;;46.33;30.65;;;5.10;85.70;;;;;;5064152;28;20037;-75
2021/11/12 08:24:55;;;;;;;42.60;30.20;;;5.30;85.50;;;;;;5075490;27;20112;-77
2021/11/12 08:37:40;;;;;;;40.58;28.48;;;6.00;83.70;;;;;;5079007;27;20043;-71
2021/11/12 08:42:40;;;;;;;37.38;26.20;;;6.30;82.60;;;;;;5068401;28;20357;-72
2021/11/12 08:45:18;;;;;;;32.67;25.15;;;6.50;82.50;;;;;;5076512;28;20399;-73
2021/11/12 08:47:50;;;;;;;36.58;25.25;;;6.60;81.40;;;;;;5061274;28;20029;-71
2021/11/12 08:50:21;;;;;;;36.63;25.73;;;6.60;81.10;;;;;;5057913;28;20065;-74
2021/11/12 08:52:51;;;;;;;33.55;24.25;;;6.80;80.80;;;;;;5065952;28;20079;-72
2021/11/12 08:55:24;;;;;;;35.60;24.15;;;6.80;80.40;;;;;;5073477;28;20698;-71
2021/11/12 08:57:49;;;;;;;33.88;24.95;;;6.90;80.00;;;;;;5055532;28;20090;-70
2021/11/12 09:00:15;;;;;;;33.30;25.77;;;7.00;79.90;;;;;;5067367;28;20067;-72
2021/11/12 09:02:41;;;;;;;37.42;25.58;;;7.00;79.80;;;;;;5067219;28;20487;-71
2021/11/12 09:05:07;;;;;;;35.30;27.33;;;6.90;79.90;;;;;;5059615;28;20041;-69
2021/11/12 09:07:33;;;;;;;39.03;27.45;;;7.10;80.30;;;;;;5062194;28;20046;-71
2021/11/12 09:09:59;;;;;;;39.30;27.65;;;7.10;80.40;;;;;;5055653;28;20056;-69
2021/11/12 09:12:26;;;;;;;41.88;28.10;;;7.10;79.90;;;;;;5058742;28;20036;-70
2021/11/12 09:14:55;;;;;;;43.15;30.25;;;7.30;79.90;;;;;;5064404;28;20024;-69
2021/11/12 09:17:24;;;;;;;40.88;30.40;;;7.40;79.70;;;;;;5060631;28;20044;-70
2021/11/12 09:19:57;;;;;;;44.17;31.55;;;7.40;79.80;;;;;;5062288;28;20072;-70
2021/11/12 09:22:26;;;;;;;44.80;30.23;;;7.40;79.60;;;;;;5067457;28;20487;-72
2021/11/12 09:24:52;;;;;;;41.10;28.73;;;7.20;80.00;;;;;;5074255;28;20101;-71
2021/11/12 09:27:20;;;;;;;42.65;28.10;;;7.30;79.80;;;;;;5071347;28;20170;-71
2021/11/12 09:29:46;;;;;;;45.38;28.63;;;7.40;79.50;;;;;;5083811;28;20044;-70
2021/11/12 09:32:12;;;;;;;39.38;28.08;;;7.40;79.20;;;;;;5073010;28;20059;-75
2021/11/12 09:34:38;;;;;;;37.50;27.27;;;7.50;79.80;;;;;;5073115;28;20463;-70
2021/11/12 09:37:08;;;;;;;39.45;27.20;;;7.60;79.60;;;;;;5084555;28;20039;-70
2021/11/12 09:39:35;;;;;;;44.13;29.42;;;7.70;79.00;;;;;;5072206;28;20047;-70
2021/11/12 09:42:03;;;;;;;39.17;27.60;;;7.70;78.60;;;;;;5082338;28;20498;-70
2021/11/12 09:44:31;;;;;;;39.75;26.85;;;7.50;79.20;;;;;;5080885;28;20028;-71
2021/11/12 09:46:58;;;;;;;40.92;27.65;;;7.40;79.40;;;;;;5080907;28;20040;-73
2021/11/12 09:49:25;;;;;;;41.70;27.83;;;7.30;79.80;;;;;;5074740;28;21414;-74
2021/11/12 09:51:50;;;;;;;41.20;27.02;;;7.30;80.50;;;;;;5070778;28;20072;-71
2021/11/12 09:54:16;;;;;;;39.17;27.45;;;7.30;80.40;;;;;;5081739;28;20132;-71
2021/11/12 09:56:42;;;;;;;40.03;26.77;;;7.30;80.10;;;;;;5068193;28;20036;-71
2021/11/12 09:59:08;;;;;;;39.47;27.25;;;7.20;80.80;;;;;;5078397;28;20436;-70
2021/11/12 10:01:37;;;;;;;39.20;25.63;;;7.30;80.50;;;;;;5080788;28;20115;-71
2021/11/12 10:04:05;;;;;;;38.40;25.10;;;7.40;80.50;;;;;;5082455;28;20064;-70
2021/11/12 10:06:34;;;;;;;35.33;25.40;;;7.40;80.30;;;;;;5081633;28;20035;-70
2021/11/12 10:09:01;;;;;;;38.00;26.30;;;7.60;80.00;;;;;;5073832;28;20046;-69
2021/11/12 10:11:29;;;;;;;36.13;23.75;;;7.80;79.10;;;;;;5076925;28;20048;-70
2021/11/12 10:14:04;;;;;;;36.15;25.27;;;7.90;78.40;;;;;;5059833;28;20047;-70
2021/11/12 10:16:50;;;;;;;33.30;23.08;;;8.10;78.40;;;;;;5060696;28;20036;-70
2021/11/12 10:19:18;;;;;;;33.45;23.80;;;8.10;77.70;;;;;;5061747;28;20383;-70
2021/11/12 10:21:46;;;;;;;32.65;22.98;;;8.30;77.40;;;;;;5058707;28;20123;-70
2021/11/12 10:24:17;;;;;;;34.45;22.75;;;8.40;76.70;;;;;;5055344;28;20033;-70
2021/11/12 10:26:45;;;;;;;29.50;20.35;;;8.50;75.90;;;;;;5057611;28;20067;-71
2021/11/12 10:29:15;;;;;;;31.17;20.42;;;8.70;75.60;;;;;;5074551;28;20036;-70
2021/11/12 10:31:45;;;;;;;32.55;20.90;;;8.70;74.40;;;;;;5062227;28;20036;-71
2021/11/12 10:34:22;;;;;;;30.75;20.63;;;8.80;75.00;;;;;;5059585;28;20037;-70
2021/11/12 10:36:58;;;;;;;30.30;19.67;;;8.80;73.90;;;;;;5057815;28;20119;-70
2021/11/12 10:39:29;;;;;;;28.90;20.38;;;8.80;73.50;;;;;;5058360;28;20403;-72
2021/11/12 10:41:59;;;;;;;29.13;19.33;;;9.00;73.20;;;;;;5061518;28;20055;-71
2021/11/12 10:44:24;;;;;;;29.65;21.17;;;9.10;73.00;;;;;;5056368;28;20098;-71
2021/11/12 10:46:50;;;;;;;32.80;22.60;;;9.10;73.00;;;;;;5060633;28;20032;-72
2021/11/12 10:49:34;;;;;;;30.38;21.70;;;9.20;72.50;;;;;;5058981;28;20040;-70
2021/11/12 10:52:10;;;;;;;27.02;19.45;;;9.20;72.40;;;;;;5054360;28;20041;-71
2021/11/12 10:54:53;;;;;;;28.15;19.27;;;9.40;71.40;;;;;;5060762;28;20029;-71
2021/11/12 10:57:38;;;;;;;29.98;19.25;;;9.50;71.20;;;;;;5056926;28;20029;-74
2021/11/12 11:00:13;;;;;;;27.17;19.65;;;9.50;70.70;;;;;;5075806;28;20487;-71
2021/11/12 11:02:45;;;;;;;29.17;19.13;;;9.60;70.80;;;;;;5080825;27;20133;-71
2021/11/12 11:05:23;;;;;;;27.90;19.92;;;9.60;70.40;;;;;;5077825;28;20040;-71
2021/11/12 11:08:04;;;;;;;30.15;20.50;;;9.60;70.70;;;;;;5069760;28;20048;-71
2021/11/12 11:10:36;;;;;;;29.85;19.45;;;9.70;70.50;;;;;;5057291;28;20493;-70
2021/11/12 11:13:10;;;;;;;27.75;19.45;;;9.80;70.70;;;;;;5060464;28;20468;-71
2021/11/12 11:15:49;;;;;;;28.52;19.90;;;9.80;69.90;;;;;;5082679;28;20150;-71
2021/11/12 11:18:41;;;;;;;30.50;19.88;;;10.00;70.40;;;;;;5078510;27;20043;-71
2021/11/12 11:21:10;;;;;;;28.55;20.40;;;10.10;70.30;;;;;;5065621;28;20047;-71
2021/11/12 11:23:56;;;;;;;28.15;18.83;;;10.20;69.40;;;;;;5061131;28;20054;-71
2021/11/12 11:26:25;;;;;;;28.85;18.02;;;10.30;69.70;;;;;;5060312;28;20465;-71
2021/11/12 11:29:00;;;;;;;27.38;20.55;;;10.30;68.60;;;;;;5057420;28;20037;-73
2021/11/12 11:31:27;;;;;;;29.65;19.88;;;10.40;68.90;;;;;;5062994;28;20525;-72
2021/11/12 11:33:54;;;;;;;25.80;18.73;;;10.40;69.70;;;;;;5079821;28;20039;-73
2021/11/12 11:36:22;;;;;;;26.40;18.98;;;10.60;68.50;;;;;;5076344;28;20043;-71
2021/11/12 11:38:50;;;;;;;27.15;18.38;;;10.60;68.40;;;;;;5079819;27;20028;-71
2021/11/12 11:41:18;;;;;;;25.80;18.25;;;10.40;67.80;;;;;;5076704;28;20024;-73
2021/11/12 11:43:45;;;;;;;25.08;18.40;;;10.30;68.50;;;;;;5081198;28;20028;-70
2021/11/12 11:46:23;;;;;;;25.50;18.20;;;10.30;69.20;;;;;;5067906;28;20090;-70
2021/11/12 11:48:51;;;;;;;29.65;17.95;;;10.40;68.80;;;;;;5061604;28;20673;-71
2021/11/12 11:51:37;;;;;;;22.90;16.80;;;10.40;68.20;;;;;;5059404;28;20036;-71
2021/11/12 11:54:06;;;;;;;23.23;16.90;;;10.30;68.80;;;;;;5057725;28;20032;-70
2021/11/12 11:56:39;;;;;;;24.98;17.60;;;10.40;68.80;;;;;;5059932;28;20035;-70
2021/11/12 11:59:28;;;;;;;23.48;16.90;;;10.40;68.90;;;;;;5082857;27;20131;-74
2021/11/12 12:02:02;;;;;;;26.83;18.38;;;10.50;68.70;;;;;;5067663;27;20024;-70
2021/11/12 12:04:32;;;;;;;24.95;17.92;;;10.40;68.80;;;;;;5065221;28;20500;-71
2021/11/12 12:07:01;;;;;;;26.30;18.05;;;10.30;69.30;;;;;;5061369;28;20103;-72
2021/11/12 12:09:58;;;;;;;25.65;18.00;;;10.10;69.30;;;;;;5079958;28;20403;-72
2021/11/12 12:12:30;;;;;;;25.65;17.48;;;10.10;69.30;;;;;;5079336;28;20047;-70
2021/11/12 12:15:18;;;;;;;24.10;16.92;;;10.00;69.70;;;;;;5083173;28;20040;-72
2021/11/12 12:17:46;;;;;;;23.05;16.88;;;10.10;69.50;;;;;;5082210;28;20043;-71
2021/11/12 13:25:51;;;;;;;21.42;14.77;;;11.10;68.00;;;;;;5063581;28;20036;-69
2021/11/12 13:28:26;;;;;;;17.67;13.65;;;11.20;68.00;;;;;;5083354;28;20078;-71
2021/11/12 13:31:08;;;;;;;18.35;14.63;;;11.30;68.30;;;;;;5076698;28;20047;-68
2021/11/12 13:33:58;;;;;;;15.80;13.40;;;11.30;68.40;;;;;;5078913;28;20614;-70
2021/11/12 13:36:30;;;;;;;20.05;14.15;;;11.30;68.00;;;;;;5058025;28;20037;-70
2021/11/12 13:39:04;;;;;;;17.92;13.32;;;11.30;67.60;;;;;;5059758;28;20370;-69
2021/11/12 13:41:38;;;;;;;19.65;13.57;;;11.30;67.40;;;;;;5058953;28;20036;-69
2021/11/12 13:44:10;;;;;;;18.88;14.27;;;11.20;67.30;;;;;;5079961;28;20044;-69
2021/11/12 13:46:45;;;;;;;19.00;12.60;;;11.30;67.50;;;;;;5071926;27;20064;-69
2021/11/12 13:49:23;;;;;;;17.25;12.98;;;11.50;67.80;;;;;;5068004;28;20039;-69
2021/11/12 13:51:49;;;;;;;18.75;13.45;;;11.60;68.00;;;;;;5072019;28;20040;-70
2021/11/12 13:54:15;;;;;;;19.20;13.50;;;11.70;67.60;;;;;;5076771;28;20456;-69
2021/11/12 13:56:40;;;;;;;18.98;14.30;;;11.60;67.10;;;;;;5063175;28;20468;-70
2021/11/12 13:59:13;;;;;;;18.83;13.40;;;11.60;67.60;;;;;;5057242;28;20365;-71
2021/11/12 14:01:39;;;;;;;18.63;14.10;;;11.60;67.60;;;;;;5059299;28;20055;-72
2021/11/12 14:04:25;;;;;;;20.60;14.00;;;11.60;67.10;;;;;;5053837;28;20479;-71
2021/11/12 14:06:53;;;;;;;20.55;14.80;;;11.60;66.80;;;;;;5057243;28;20103;-70
2021/11/12 14:09:20;;;;;;;18.75;13.50;;;11.60;66.40;;;;;;5055010;28;20029;-71
2021/11/12 14:11:47;;;;;;;16.85;13.23;;;11.60;66.10;;;;;;5053384;28;20747;-73
2021/11/12 14:14:19;;;;;;;17.63;12.50;;;11.50;66.60;;;;;;5079171;27;20127;-73
2021/11/12 14:16:57;;;;;;;18.95;12.90;;;11.50;67.00;;;;;;5079505;27;20162;-70
2021/11/12 14:23:06;;;;;;;17.80;13.90;;;11.40;66.80;;;;;;5081783;27;20104;-74
2021/11/12 14:26:09;;;;;;;19.45;13.27;;;11.40;66.80;;;;;;5080314;28;20072;-70
2021/11/12 14:28:08;;;;;;;19.13;13.98;;;11.40;66.50;;;;;;5072406;27;20032;-71
2021/11/12 14:31:10;;;;;;;16.38;12.73;;;11.30;67.00;;;;;;5078461;28;20051;-71
2021/11/12 14:33:40;;;;;;;18.88;13.35;;;11.30;66.70;;;;;;5082680;28;20097;-70
2021/11/12 14:36:23;;;;;;;18.17;13.40;;;11.20;66.80;;;;;;5067977;27;20123;-70
2021/11/12 14:38:55;;;;;;;19.23;13.38;;;11.10;67.30;;;;;;5082111;28;20136;-70
2021/11/12 14:41:33;;;;;;;16.25;13.52;;;11.00;67.30;;;;;;5076386;27;20036;-71
2021/11/12 14:49:22;;;;;;;17.63;13.55;;;11.00;67.40;;;;;;5078266;28;20119;-70
2021/11/12 14:52:04;;;;;;;18.27;13.40;;;11.10;67.40;;;;;;5081790;28;20139;-70
2021/11/12 14:54:41;;;;;;;18.95;15.18;;;11.00;67.70;;;;;;5081982;28;20160;-71
2021/11/12 14:59:41;;;;;;;19.08;14.25;;;11.00;67.70;;;;;;5090145;27;20024;-70
2021/11/12 15:02:09;;;;;;;20.30;14.98;;;10.90;67.80;;;;;;5068466;27;20048;-70
2021/11/12 15:04:35;;;;;;;19.63;14.63;;;10.80;67.90;;;;;;5070019;28;20380;-71
2021/11/12 15:07:02;;;;;;;25.77;15.13;;;10.70;68.40;;;;;;5059044;28;20448;-71
2021/11/12 15:09:30;;;;;;;22.25;16.02;;;10.60;68.80;;;;;;5077040;28;20066;-73
2021/11/12 15:11:56;;;;;;;19.83;14.45;;;10.50;68.80;;;;;;5063168;28;20037;-71
2021/11/12 15:14:30;;;;;;;21.10;16.17;;;10.40;69.50;;;;;;5075187;28;20146;-71
2021/11/12 15:16:56;;;;;;;21.98;15.43;;;10.40;69.80;;;;;;5061107;28;20049;-72
2021/11/12 15:19:23;;;;;;;20.13;16.40;;;10.30;70.20;;;;;;5062438;28;20033;-70
2021/11/12 15:29:31;;;;;;;21.35;16.05;;;10.20;70.90;;;;;;5072536;28;20049;-70
2021/11/12 15:34:23;;;;;;;20.40;16.10;;;10.10;71.20;;;;;;5059344;28;20037;-72
2021/11/12 15:42:41;;;;;;;22.27;17.90;;;10.00;72.00;;;;;;5061870;27;20466;-74
2021/11/12 15:45:15;;;;;;;21.65;17.13;;;9.90;72.60;;;;;;5079306;28;20040;-70
2021/11/12 15:47:56;;;;;;;21.38;17.05;;;9.80;73.00;;;;;;5079181;28;20613;-70
2021/11/12 15:50:30;;;;;;;20.20;15.15;;;9.70;73.20;;;;;;5083110;28;20545;-69
2021/11/12 15:55:30;;;;;;;22.83;16.98;;;9.60;74.00;;;;;;5083401;28;20086;-70
2021/11/12 16:06:13;;;;;;;;;;;9.70;74.20;;;;;;5066178;28;20127;-70
2021/11/12 16:13:49;;;;;;;23.38;17.48;;;9.60;74.90;;;;;;5064943;28;20033;-71
2021/11/12 16:19:09;;;;;;;23.15;17.63;;;9.60;74.80;;;;;;5081645;28;20044;-73
2021/11/12 16:26:33;;;;;;;24.45;18.85;;;9.60;75.10;;;;;;5076281;28;20025;-70
2021/11/12 16:31:29;;;;;;;23.88;18.50;;;9.60;75.20;;;;;;5063556;28;20492;-69
2021/11/12 16:33:58;;;;;;;25.70;18.80;;;9.60;75.40;;;;;;5072128;28;20036;-73
2021/11/12 16:36:24;;;;;;;23.95;18.33;;;9.60;75.80;;;;;;5070519;28;20044;-75
2021/11/12 16:38:51;;;;;;;25.08;19.10;;;9.50;76.10;;;;;;5064901;28;20237;-74
2021/11/12 16:41:21;;;;;;;24.90;18.63;;;9.60;76.20;;;;;;5077263;28;20036;-75
2021/11/12 16:47:06;;;;;;;24.35;19.58;;;9.50;76.40;;;;;;5076637;28;20048;-73
2021/11/12 16:59:16;;;;;;;24.98;20.80;;;9.50;77.00;;;;;;5083769;27;20096;-74
2021/11/12 17:09:41;;;;;;;23.83;20.17;;;9.50;77.70;;;;;;5059897;28;20040;-76
2021/11/12 17:45:11;;;;;;;27.48;20.65;;;9.30;80.00;;;;;;5081930;27;20853;-74
2021/11/12 17:47:40;;;;;;;28.00;21.80;;;9.30;80.20;;;;;;5061229;28;20041;-73
2021/11/12 17:53:47;;;;;;;;;;;9.40;80.20;;;;;;5067071;28;20060;-74
2021/11/12 18:05:04;;;;;;;27.63;21.00;;;9.50;80.50;;;;;;5061890;28;20078;-72
2021/11/12 18:22:49;;;;;;;29.10;23.55;;;9.60;81.50;;;;;;5080061;28;20074;-73
2021/11/12 21:48:25;;;;;;;28.67;22.23;;;10.20;87.20;;;;;;5074589;28;20034;-76
2021/11/12 21:50:58;;;;;;;29.98;21.23;;;10.20;87.50;;;;;;5079693;28;20565;-72
2021/11/12 21:53:24;;;;;;;31.38;22.45;;;10.20;87.90;;;;;;5063561;28;20071;-77
2021/11/12 21:55:50;;;;;;;33.33;22.85;;;10.20;88.50;;;;;;5058122;28;20045;-72
2021/11/12 21:58:17;;;;;;;30.73;22.52;;;10.10;88.70;;;;;;5061331;28;20505;-73
2021/11/12 22:00:46;;;;;;;32.22;23.75;;;10.10;89.20;;;;;;5076033;28;20044;-72
2021/11/12 22:03:15;;;;;;;31.45;23.67;;;10.10;89.50;;;;;;5068332;28;20553;-72
2021/11/12 22:05:41;;;;;;;31.88;22.15;;;10.10;89.70;;;;;;5081978;28;20040;-72
2021/11/12 22:08:06;;;;;;;31.23;22.42;;;10.10;89.80;;;;;;5067699;28;20052;-75
2021/11/12 22:10:32;;;;;;;34.03;24.50;;;10.10;89.90;;;;;;5080398;28;20131;-73
2021/11/12 22:12:58;;;;;;;32.33;22.77;;;10.10;90.10;;;;;;5085294;28;20395;-74
2021/11/12 22:15:24;;;;;;;35.60;23.15;;;10.10;90.30;;;;;;5086892;28;20089;-73
2021/11/12 22:17:50;;;;;;;31.60;22.50;;;10.00;90.50;;;;;;5086712;28;20043;-74
2021/11/12 22:20:18;;;;;;;34.85;22.65;;;10.00;90.60;;;;;;5083481;28;20043;-72
2021/11/12 22:22:45;;;;;;;35.67;24.20;;;10.00;90.60;;;;;;5084048;28;20040;-73
2021/11/12 22:25:12;;;;;;;32.20;23.48;;;10.00;90.70;;;;;;5087890;27;20039;-71
2021/11/12 22:27:38;;;;;;;33.47;22.90;;;10.00;90.70;;;;;;5079692;28;20376;-72
2021/11/12 22:30:07;;;;;;;35.38;23.17;;;10.00;90.70;;;;;;5067762;28;20542;-72
2021/11/12 22:32:33;;;;;;;31.80;22.63;;;10.00;90.60;;;;;;5075405;28;20040;-74
2021/11/12 22:34:59;;;;;;;32.42;22.15;;;10.00;90.60;;;;;;5076413;28;20032;-71
2021/11/12 22:37:24;;;;;;;31.65;21.95;;;10.00;90.70;;;;;;5082322;28;20036;-73
2021/11/12 22:39:50;;;;;;;30.45;21.52;;;10.00;90.80;;;;;;5092175;27;20058;-72
2021/11/12 22:42:17;;;;;;;35.83;22.52;;;10.10;90.80;;;;;;5085872;28;20081;-74
2021/11/12 22:44:44;;;;;;;34.95;21.67;;;10.10;90.90;;;;;;5082537;28;20059;-74
2021/11/12 22:47:11;;;;;;;27.67;20.33;;;10.20;91.00;;;;;;5081992;28;20047;-73
2021/11/12 22:49:37;;;;;;;38.90;23.27;;;10.10;91.00;;;;;;5081611;28;20200;-74
2021/11/12 22:52:03;;;;;;;31.13;22.27;;;10.20;91.10;;;;;;5081259;27;20070;-73
2021/11/12 22:54:29;;;;;;;33.50;22.40;;;10.20;91.30;;;;;;5079179;28;20387;-71
2021/11/12 22:56:55;;;;;;;32.00;21.08;;;10.10;91.30;;;;;;5074529;28;20050;-71